Time;durP1;ratioP1;P1;durP2;ratioP2;P2;SDS_P1;SDS_P2;PMS_P1;PMS_P2;Temp;Humidity;BMP_temperature;BMP_pressure;BME280_temperature;BME280_humidity;BME280_pressure;Samples;Min_cycle;Max_cycle;Signal;HPM_P1;HPM_P2
2022/04/18 00:01:59;;;;;;;0.30;0.20;;;;;;;5.54;79.80;100718.66;5062710;28;20450;-50
2022/04/18 00:04:26;;;;;;;0.30;0.20;;;;;;;5.54;79.61;100717.78;5059690;28;20454;-49
2022/04/18 00:06:52;;;;;;;0.30;0.20;;;;;;;5.61;79.41;100709.84;5066175;28;20511;-49
2022/04/18 00:09:19;;;;;;;0.30;0.20;;;;;;;5.49;79.73;100715.16;5060801;28;20518;-49
2022/04/18 00:11:46;;;;;;;0.30;0.20;;;;;;;5.37;80.80;100709.00;5065921;28;20492;-49
2022/04/18 00:14:12;;;;;;;0.30;0.20;;;;;;;5.32;80.76;100704.59;5067835;28;20495;-50
2022/04/18 00:16:39;;;;;;;0.30;0.20;;;;;;;5.38;80.55;100703.72;5063312;28;20458;-49
2022/04/18 00:19:06;;;;;;;0.30;0.20;;;;;;;5.26;81.30;100706.38;5058544;28;20481;-49
2022/04/18 00:21:32;;;;;;;0.30;0.20;;;;;;;5.30;81.25;100705.47;5063163;28;20505;-49
2022/04/18 00:23:59;;;;;;;0.30;0.13;;;;;;;5.28;81.52;100701.97;5060792;28;20489;-49
2022/04/18 00:26:26;;;;;;;0.30;0.10;;;;;;;5.28;80.72;100715.16;5063616;28;20462;-49
2022/04/18 00:28:52;;;;;;;0.30;0.20;;;;;;;5.24;80.70;100709.00;5053786;28;20478;-49
2022/04/18 00:31:19;;;;;;;0.30;0.20;;;;;;;5.23;81.34;100707.25;5063092;28;20475;-49
2022/04/18 00:33:46;;;;;;;0.30;0.20;;;;;;;5.24;81.52;100708.13;5059409;28;21253;-50
2022/04/18 00:36:12;;;;;;;0.30;0.20;;;;;;;5.10;81.88;100702.88;5057211;28;20455;-49
2022/04/18 00:38:39;;;;;;;0.30;0.20;;;;;;;5.05;81.75;100702.84;5067664;28;20446;-49
2022/04/18 00:41:06;;;;;;;0.30;0.10;;;;;;;5.10;81.35;100699.34;5057405;28;20467;-50
2022/04/18 00:43:48;;;;;;;1.43;0.73;;;;;;;4.91;82.26;100693.19;5063735;28;20826;-49
2022/04/18 00:46:17;;;;;;;0.30;0.20;;;;;;;4.93;81.81;100692.28;5065706;28;20934;-50
2022/04/18 00:48:44;;;;;;;0.30;0.20;;;;;;;5.04;81.71;100687.91;5060330;28;20482;-49
2022/04/18 00:51:13;;;;;;;0.30;0.20;;;;;;;4.86;82.26;100676.50;5060533;28;20474;-49
2022/04/18 00:53:42;;;;;;;0.53;0.50;;;;;;;4.73;82.46;100678.25;5067292;28;20443;-50
2022/04/18 00:56:12;;;;;;;0.30;0.20;;;;;;;4.80;82.80;100674.75;5054309;28;20447;-51
2022/04/18 00:58:41;;;;;;;0.30;0.20;;;;;;;4.65;83.34;100675.59;5066822;28;20508;-49
2022/04/18 01:01:11;;;;;;;0.30;0.20;;;;;;;4.67;82.82;100662.44;5067635;28;20466;-50
2022/04/18 01:03:38;;;;;;;0.30;0.20;;;;;;;4.77;82.44;100658.94;5062705;28;20446;-49
2022/04/18 01:06:05;;;;;;;0.93;0.40;;;;;;;4.51;83.10;100661.50;5052828;28;20451;-49
2022/04/18 01:08:34;;;;;;;0.30;0.20;;;;;;;4.55;83.36;100659.78;5056276;28;20553;-50
2022/04/18 01:11:02;;;;;;;0.30;0.20;;;;;;;4.71;82.54;100658.94;5051838;28;20470;-49
2022/04/18 01:13:28;;;;;;;0.30;0.20;;;;;;;4.78;82.63;100649.28;5064693;28;20446;-50
2022/04/18 01:15:57;;;;;;;0.30;0.20;;;;;;;4.65;83.50;100651.88;5061159;28;20464;-49
2022/04/18 01:18:23;;;;;;;0.40;0.33;;;;;;;4.36;84.33;100646.56;5069000;28;20450;-49
2022/04/18 01:20:50;;;;;;;0.30;0.20;;;;;;;4.67;83.16;100646.66;5070862;28;20565;-49
2022/04/18 01:23:18;;;;;;;0.30;0.20;;;;;;;4.51;84.01;100643.09;5059822;28;20454;-49
2022/04/18 01:31:15;;;;;;;0.30;0.17;;;;;;;4.58;82.95;100644.88;5061821;28;20970;-50
2022/04/18 01:33:41;;;;;;;0.30;0.20;;;;;;;4.57;83.56;100645.75;5059442;28;20458;-49
2022/04/18 01:36:08;;;;;;;0.30;0.10;;;;;;;4.60;83.27;100652.78;5061108;28;20512;-49
2022/04/18 01:38:35;;;;;;;0.30;0.20;;;;;;;4.49;82.74;100641.34;5058386;28;20854;-50
2022/04/18 01:41:01;;;;;;;0.30;0.20;;;;;;;4.20;83.96;100644.78;5064721;28;20475;-49
2022/04/18 01:43:28;;;;;;;0.30;0.20;;;;;;;4.44;83.83;100639.59;5066858;28;20872;-49
2022/04/18 01:45:54;;;;;;;0.30;0.20;;;;;;;4.52;83.00;100636.06;5062081;28;20458;-49
2022/04/18 01:48:21;;;;;;;0.50;0.50;;;;;;;4.38;83.17;100631.66;5059644;28;20816;-49
2022/04/18 01:50:48;;;;;;;0.30;0.20;;;;;;;4.36;83.72;100629.91;5064369;28;20513;-49
2022/04/18 01:53:14;;;;;;;0.30;0.20;;;;;;;4.45;83.84;100628.19;5055951;28;20480;-49
2022/04/18 01:55:41;;;;;;;0.30;0.20;;;;;;;4.44;83.92;100625.56;5062851;28;20510;-49
2022/04/18 01:58:08;;;;;;;0.30;0.20;;;;;;;4.34;84.49;100632.53;5066672;28;20518;-50
2022/04/18 02:00:35;;;;;;;0.30;0.10;;;;;;;4.34;85.06;100627.28;5062491;28;20469;-50
2022/04/18 02:03:02;;;;;;;0.30;0.20;;;;;;;3.98;85.40;100630.69;5060842;28;20911;-49
2022/04/18 02:05:29;;;;;;;0.40;0.20;;;;;;;4.14;84.96;100637.75;5066090;28;20459;-49
2022/04/18 02:07:55;;;;;;;0.30;0.20;;;;;;;3.97;85.76;100635.94;5073095;28;20440;-49
2022/04/18 02:10:22;;;;;;;0.30;0.20;;;;;;;4.06;85.23;100631.59;5062429;28;20535;-48
2022/04/18 02:12:48;;;;;;;0.30;0.20;;;;;;;4.00;85.32;100625.44;5065501;28;20454;-49
2022/04/18 02:15:15;;;;;;;0.30;0.20;;;;;;;4.06;84.70;100621.06;5067637;28;20851;-49
2022/04/18 02:17:42;;;;;;;0.30;0.20;;;;;;;4.06;84.75;100623.69;5067255;28;20447;-50
2022/04/18 02:20:09;;;;;;;0.30;0.20;;;;;;;3.90;85.33;100621.03;5056104;28;20830;-49
2022/04/18 02:22:36;;;;;;;0.30;0.20;;;;;;;3.95;85.73;100619.28;5066434;28;20503;-50
2022/04/18 02:25:03;;;;;;;0.30;0.20;;;;;;;3.84;85.39;100628.03;5064604;28;20970;-49
2022/04/18 02:27:30;;;;;;;0.30;0.20;;;;;;;4.02;85.33;100627.19;5060845;28;20512;-50
2022/04/18 02:29:56;;;;;;;1.07;0.63;;;;;;;3.80;85.45;100628.84;5070480;28;20500;-50
2022/04/18 02:35:08;;;;;;;0.43;0.40;;;;;;;4.01;85.88;100621.94;5066670;28;20443;-50
2022/04/18 02:37:35;;;;;;;0.30;0.20;;;;;;;3.70;86.49;100619.19;5074425;28;20474;-50
2022/04/18 02:40:02;;;;;;;0.30;0.20;;;;;;;3.55;86.59;100624.34;5074198;28;20466;-49
2022/04/18 02:42:28;;;;;;;0.30;0.20;;;;;;;3.70;86.83;100626.16;5062772;28;20457;-49
2022/04/18 02:44:55;;;;;;;0.30;0.20;;;;;;;3.62;87.09;100628.78;5070736;28;20446;-49
2022/04/18 02:47:22;;;;;;;0.30;0.20;;;;;;;4.01;85.98;100621.94;5069987;28;20505;-49
2022/04/18 02:49:50;;;;;;;0.30;0.10;;;;;;;3.75;86.62;100633.22;5052885;28;20500;-49
2022/04/18 02:52:17;;;;;;;0.30;0.20;;;;;;;3.71;86.72;100626.22;5073856;28;20449;-49
2022/04/18 02:54:44;;;;;;;0.30;0.20;;;;;;;3.79;87.31;100629.72;5060847;28;20524;-48
2022/04/18 02:57:12;;;;;;;0.30;0.20;;;;;;;3.71;86.79;100622.69;5056512;28;20803;-50
2022/04/18 02:59:39;;;;;;;0.43;0.43;;;;;;;3.69;87.75;100617.41;5051473;28;20995;-49
2022/04/18 03:02:06;;;;;;;0.53;0.50;;;;;;;3.84;86.21;100611.38;5068311;28;20557;-50
2022/04/18 03:04:33;;;;;;;0.30;0.20;;;;;;;3.76;87.17;100616.56;5066553;28;20459;-49
2022/04/18 03:07:01;;;;;;;0.77;0.77;;;;;;;3.46;87.94;100608.56;5068070;28;20476;-48
2022/04/18 03:09:28;;;;;;;0.30;0.20;;;;;;;3.52;87.33;100613.84;5069407;28;21000;-49
2022/04/18 03:11:54;;;;;;;0.30;0.20;;;;;;;3.43;88.23;100606.78;5066458;28;20880;-51
2022/04/18 03:14:21;;;;;;;0.30;0.20;;;;;;;3.27;88.88;100603.19;5063667;28;20505;-48
2022/04/18 03:16:48;;;;;;;0.20;0.10;;;;;;;3.38;88.56;100605.88;5067016;28;20500;-49
2022/04/18 03:19:15;;;;;;;0.30;0.20;;;;;;;3.20;88.59;100596.16;5069945;28;20962;-49
2022/04/18 03:21:41;;;;;;;0.30;0.17;;;;;;;3.02;90.17;100593.41;5063129;28;20521;-49
2022/04/18 03:24:08;;;;;;;0.30;0.20;;;;;;;3.36;88.71;100589.22;5069837;28;20450;-50
2022/04/18 03:26:35;;;;;;;0.30;0.20;;;;;;;3.36;88.56;100593.59;5059845;28;20504;-50
2022/04/18 03:29:01;;;;;;;2.00;2.00;;;;;;;3.44;88.23;100594.53;5059459;28;20535;-49
2022/04/18 03:31:28;;;;;;;0.30;0.20;;;;;;;3.48;87.72;100591.03;5065720;28;20470;-51
2022/04/18 03:33:55;;;;;;;0.40;0.30;;;;;;;3.34;88.95;100588.34;5064066;28;20453;-49
2022/04/18 03:41:51;;;;;;;0.20;0.10;;;;;;;3.49;88.61;100592.78;5062273;28;20991;-49
2022/04/18 03:44:18;;;;;;;0.30;0.20;;;;;;;3.37;88.64;100593.59;5067464;28;20443;-48
2022/04/18 03:46:45;;;;;;;0.20;0.10;;;;;;;3.26;88.59;100590.91;5069163;28;20449;-50
2022/04/18 03:49:11;;;;;;;0.30;0.10;;;;;;;3.26;89.36;100595.28;5064788;28;20485;-51
2022/04/18 03:51:38;;;;;;;0.30;0.13;;;;;;;3.38;88.84;100590.09;5060096;28;20465;-49
2022/04/18 03:54:05;;;;;;;0.30;0.20;;;;;;;3.18;88.78;100586.50;5064789;28;20958;-48
2022/04/18 03:56:32;;;;;;;0.30;0.20;;;;;;;3.15;89.50;100586.47;5062406;28;20950;-50
2022/04/18 03:58:58;;;;;;;0.30;0.20;;;;;;;2.98;90.09;100584.59;5066350;28;20446;-48
2022/04/18 04:01:25;;;;;;;0.30;0.20;;;;;;;2.92;90.11;100583.72;5067899;28;20466;-48
2022/04/18 04:03:52;;;;;;;0.30;0.10;;;;;;;2.60;92.23;100584.34;5063170;28;20456;-49
2022/04/18 04:06:18;;;;;;;0.30;0.10;;;;;;;2.77;92.14;100576.59;5066200;28;20534;-49
2022/04/18 04:08:45;;;;;;;0.30;0.10;;;;;;;2.81;91.30;100570.50;5065759;28;20932;-49
2022/04/18 04:11:11;;;;;;;0.30;0.20;;;;;;;2.66;93.38;100579.13;5048220;28;20532;-49
2022/04/18 04:13:38;;;;;;;0.30;0.10;;;;;;;2.93;92.05;100581.09;5066625;28;20511;-49
2022/04/18 04:16:05;;;;;;;0.30;0.10;;;;;;;3.06;90.91;100576.78;5062045;28;20485;-49
2022/04/18 04:18:31;;;;;;;0.30;0.20;;;;;;;3.05;90.71;100574.16;5065534;28;20473;-49
2022/04/18 04:20:58;;;;;;;0.30;0.20;;;;;;;3.00;90.80;100578.50;5059391;28;20505;-49
2022/04/18 04:23:24;;;;;;;0.30;0.20;;;;;;;2.84;91.76;100581.00;5068845;28;20461;-50
2022/04/18 04:26:09;;;;;;;0.30;0.20;;;;;;;2.96;91.00;100575.84;5046948;28;20454;-49
2022/04/18 04:28:35;;;;;;;0.23;0.20;;;;;;;2.95;91.23;100573.22;5056337;28;20481;-53
2022/04/18 04:31:08;;;;;;;0.30;0.20;;;;;;;2.99;90.30;100582.84;5063381;28;21060;-49
2022/04/18 04:33:35;;;;;;;0.30;0.10;;;;;;;3.04;90.87;100586.41;5071059;28;20973;-49
2022/04/18 04:36:02;;;;;;;0.30;0.20;;;;;;;3.03;90.18;100592.53;5063732;28;20450;-49
2022/04/18 04:38:29;;;;;;;0.30;0.20;;;;;;;3.05;89.76;100582.03;5061801;28;21009;-51
2022/04/18 04:40:57;;;;;;;0.30;0.20;;;;;;;2.95;89.79;100594.22;5067609;28;20467;-48
2022/04/18 04:43:29;;;;;;;0.30;0.10;;;;;;;2.62;91.40;100593.09;5068324;28;20545;-49
2022/04/18 04:45:57;;;;;;;0.20;0.10;;;;;;;2.77;91.54;100592.34;5064694;28;20939;-48
2022/04/18 04:48:24;;;;;;;0.30;0.13;;;;;;;2.74;91.84;100594.94;5061811;28;20944;-49
2022/04/18 04:50:50;;;;;;;0.30;0.20;;;;;;;2.72;91.36;100590.53;5065565;28;20498;-48
2022/04/18 04:53:18;;;;;;;0.30;0.20;;;;;;;2.72;90.82;100580.03;5057561;28;20455;-49
2022/04/18 04:55:45;;;;;;;0.30;0.10;;;;;;;2.79;91.38;100577.47;5064547;28;20462;-49
2022/04/18 04:58:11;;;;;;;0.30;0.30;;;;;;;2.52;93.73;100580.75;5067605;28;20479;-50
2022/04/18 05:00:39;;;;;;;0.20;0.17;;;;;;;2.88;92.54;100582.81;5064604;28;20473;-49
2022/04/18 05:03:06;;;;;;;0.30;0.10;;;;;;;2.92;92.01;100587.22;5061541;28;20457;-49
2022/04/18 05:05:32;;;;;;;0.30;0.10;;;;;;;2.96;91.71;100588.97;5069606;28;20931;-50
2022/04/18 05:07:59;;;;;;;0.20;0.17;;;;;;;3.04;91.25;100589.03;5060865;28;20805;-48
2022/04/18 05:10:26;;;;;;;0.30;0.20;;;;;;;3.03;92.60;100589.03;5063595;28;20548;-51
2022/04/18 05:12:53;;;;;;;0.30;0.20;;;;;;;3.48;91.38;100593.66;5058935;28;20450;-49
2022/04/18 05:15:19;;;;;;;0.20;0.10;;;;;;;3.40;91.83;100582.22;5052513;28;20605;-49
2022/04/18 05:17:46;;;;;;;0.30;0.20;;;;;;;3.69;90.79;100574.47;5058953;28;20527;-49
2022/04/18 05:20:12;;;;;;;0.20;0.20;;;;;;;4.69;87.09;100577.31;5051821;28;20497;-49
2022/04/18 05:22:39;;;;;;;0.40;0.40;;;;;;;5.15;83.11;100579.03;5058612;28;20519;-49
2022/04/18 05:25:06;;;;;;;0.30;0.20;;;;;;;5.77;81.92;100576.19;5062034;28;20451;-49
2022/04/18 05:27:32;;;;;;;0.30;0.20;;;;;;;5.89;79.99;100583.16;5041585;28;20518;-49
2022/04/18 05:29:59;;;;;;;0.30;0.10;;;;;;;6.18;78.06;100581.28;5057615;28;20490;-48
2022/04/18 05:32:26;;;;;;;0.30;0.20;;;;;;;6.50;77.23;100583.69;5060570;28;20852;-49
2022/04/18 05:34:52;;;;;;;0.30;0.20;;;;;;;7.00;74.46;100584.19;5061330;28;20482;-48
2022/04/18 05:37:19;;;;;;;0.30;0.20;;;;;;;6.98;74.08;100588.59;5066186;28;20522;-49
2022/04/18 05:39:45;;;;;;;0.30;0.20;;;;;;;7.42;72.88;100594.31;5061201;28;20896;-49
2022/04/18 05:42:12;;;;;;;0.30;0.20;;;;;;;7.67;72.36;100586.09;5066382;28;20462;-48
2022/04/18 05:44:38;;;;;;;0.30;0.20;;;;;;;7.80;69.86;100589.47;5064620;28;20450;-48
2022/04/18 05:47:05;;;;;;;0.30;0.20;;;;;;;8.30;68.12;100599.38;5059522;28;20515;-49
2022/04/18 05:49:31;;;;;;;0.30;0.20;;;;;;;7.99;69.70;100593.63;5046366;28;20541;-49
2022/04/18 05:51:58;;;;;;;0.30;0.20;;;;;;;8.12;69.97;100595.22;5058114;28;20563;-49
2022/04/18 05:54:25;;;;;;;0.30;0.20;;;;;;;8.31;68.77;100599.34;5060490;28;20455;-49
2022/04/18 05:56:52;;;;;;;0.30;0.20;;;;;;;7.92;68.74;100598.13;5063520;28;20480;-49
2022/04/18 05:59:18;;;;;;;0.30;0.20;;;;;;;7.62;70.05;100590.56;5059735;28;20443;-49
2022/04/18 06:01:45;;;;;;;0.30;0.20;;;;;;;7.56;71.01;100588.88;5060349;28;20537;-49
2022/04/18 06:04:11;;;;;;;0.30;0.20;;;;;;;7.65;70.56;100593.16;5061026;28;20459;-50
2022/04/18 06:06:38;;;;;;;0.30;0.20;;;;;;;7.85;70.11;100588.53;5045888;28;20993;-51
2022/04/18 06:09:05;;;;;;;0.30;0.10;;;;;;;7.69;70.91;100597.56;5052201;28;20789;-49
2022/04/18 06:11:31;;;;;;;0.30;0.20;;;;;;;7.47;70.85;100586.31;5060309;28;20510;-49
2022/04/18 06:13:58;;;;;;;0.40;0.23;;;;;;;7.76;71.06;100595.69;5059101;28;20478;-48
2022/04/18 06:16:24;;;;;;;0.30;0.20;;;;;;;7.75;70.64;100591.28;5064159;28;20958;-50
2022/04/18 06:18:51;;;;;;;1.23;1.13;;;;;;;7.57;71.81;100590.63;5052284;28;20443;-49
2022/04/18 06:21:18;;;;;;;0.30;0.20;;;;;;;7.55;72.92;100595.06;5040190;28;20506;-50
2022/04/18 06:23:45;;;;;;;0.30;0.20;;;;;;;7.02;72.96;100590.31;5047231;28;20452;-51
2022/04/18 06:26:11;;;;;;;0.30;0.20;;;;;;;7.03;74.84;100597.38;5061813;28;20500;-49
2022/04/18 06:28:38;;;;;;;0.30;0.20;;;;;;;7.11;73.26;100593.75;5048376;28;20447;-49
2022/04/18 06:31:04;;;;;;;0.67;0.67;;;;;;;7.38;73.25;100591.72;5064419;28;20485;-49
2022/04/18 06:33:34;;;;;;;0.37;0.30;;;;;;;7.47;72.91;100591.63;5056448;28;20447;-52
2022/04/18 06:36:01;;;;;;;0.50;0.50;;;;;;;7.96;72.14;100597.22;5052570;28;20488;-50
2022/04/18 06:38:31;;;;;;;0.67;0.67;;;;;;;8.24;71.26;100596.84;5058412;28;21188;-49
2022/04/18 06:40:58;;;;;;;0.30;0.20;;;;;;;8.16;71.24;100610.16;5063778;28;20477;-49
2022/04/18 06:43:24;;;;;;;0.30;0.20;;;;;;;8.32;71.90;100605.53;5058118;28;20451;-49
2022/04/18 06:45:51;;;;;;;2.87;1.20;;;;;;;8.19;73.15;100603.94;5059079;28;20456;-49
2022/04/18 06:48:18;;;;;;;0.30;0.20;;;;;;;8.24;73.86;100602.13;5042331;28;20478;-49
2022/04/18 06:50:45;;;;;;;0.30;0.20;;;;;;;8.46;73.53;100600.94;5058007;28;21006;-48
2022/04/18 06:53:12;;;;;;;0.30;0.20;;;;;;;8.47;72.39;100592.09;5060006;28;20455;-48
2022/04/18 06:58:24;;;;;;;0.30;0.20;;;;;;;8.62;72.68;100585.66;5061480;28;20446;-48
2022/04/18 07:00:51;;;;;;;0.30;0.20;;;;;;;8.76;73.18;100588.09;5062106;28;20458;-49
2022/04/18 07:03:18;;;;;;;0.30;0.20;;;;;;;8.70;72.53;100591.75;5060435;28;20485;-48
2022/04/18 07:05:44;;;;;;;0.33;0.27;;;;;;;8.83;72.53;100592.41;5058270;28;20430;-48
2022/04/18 07:08:11;;;;;;;0.30;0.20;;;;;;;8.87;72.53;100586.16;5062002;28;20447;-48
2022/04/18 07:10:37;;;;;;;0.47;0.47;;;;;;;9.08;73.83;100584.94;5065274;28;20539;-49
2022/04/18 07:13:09;;;;;;;0.30;0.20;;;;;;;9.28;72.60;100593.38;5058554;28;20465;-49
2022/04/18 07:15:36;;;;;;;0.30;0.20;;;;;;;9.34;73.00;100590.63;5052466;28;20814;-49
2022/04/18 07:18:03;;;;;;;0.30;0.20;;;;;;;9.66;72.40;100590.00;5061826;28;20443;-49
2022/04/18 07:20:30;;;;;;;0.30;0.20;;;;;;;9.83;71.61;100587.00;5058416;28;20450;-50
2022/04/18 07:22:56;;;;;;;0.40;0.30;;;;;;;9.62;71.98;100588.31;5050228;28;20600;-51
2022/04/18 07:25:23;;;;;;;0.30;0.20;;;;;;;9.61;72.00;100597.19;5053220;28;20462;-51
2022/04/18 07:27:50;;;;;;;0.30;0.20;;;;;;;10.06;70.33;100592.69;5052980;28;20930;-48
2022/04/18 07:30:16;;;;;;;0.30;0.20;;;;;;;10.10;70.28;100577.56;5052461;28;20491;-49
2022/04/18 07:32:44;;;;;;;0.40;0.40;;;;;;;10.15;68.80;100586.31;5057647;28;20484;-49
2022/04/18 07:35:11;;;;;;;0.30;0.20;;;;;;;10.30;67.75;100578.03;5052971;28;21265;-47
2022/04/18 07:38:48;;;;;;;0.30;0.20;;;;;;;10.02;69.24;100580.41;5061533;28;20447;-48
2022/04/18 07:40:28;;;;;;;0.30;0.20;;;;;;;10.30;68.22;100579.81;5050823;28;20466;-48
2022/04/18 07:42:54;;;;;;;0.87;0.87;;;;;;;10.49;68.79;100572.28;5060389;28;20447;-48
2022/04/18 07:45:21;;;;;;;0.30;0.20;;;;;;;10.44;69.18;100568.88;5060825;28;20511;-48
2022/04/18 07:47:51;;;;;;;0.40;0.37;;;;;;;10.58;67.11;100570.28;5062855;28;20853;-48
2022/04/18 07:50:18;;;;;;;0.30;0.20;;;;;;;11.04;66.57;100577.09;5068680;28;20494;-48
2022/04/18 07:52:45;;;;;;;0.30;0.20;;;;;;;11.25;68.24;100576.56;5066553;28;20472;-48
2022/04/18 07:55:12;;;;;;;0.30;0.20;;;;;;;11.16;67.13;100576.78;5056848;28;20454;-49
2022/04/18 07:57:38;;;;;;;0.30;0.20;;;;;;;11.79;66.25;100572.44;5056388;28;20580;-48
2022/04/18 08:00:06;;;;;;;0.30;0.20;;;;;;;11.72;65.44;100584.13;5060879;28;20469;-49
2022/04/18 08:02:34;;;;;;;0.30;0.20;;;;;;;11.80;64.51;100585.72;5061470;28;20455;-49
2022/04/18 08:05:01;;;;;;;0.30;0.20;;;;;;;11.71;64.86;100580.59;5059781;28;20462;-49
2022/04/18 08:07:27;;;;;;;0.30;0.27;;;;;;;12.02;66.33;100579.72;5051515;28;20455;-49
2022/04/18 08:09:54;;;;;;;0.30;0.20;;;;;;;12.23;64.29;100583.56;5053446;28;20472;-49
2022/04/18 08:12:20;;;;;;;0.30;0.20;;;;;;;12.57;61.32;100578.03;5052232;28;20536;-49
2022/04/18 08:14:47;;;;;;;0.30;0.20;;;;;;;11.99;61.58;100579.84;5047055;28;20538;-48
2022/04/18 08:17:13;;;;;;;0.30;0.20;;;;;;;12.49;60.00;100570.28;5065845;28;20483;-49
2022/04/18 08:19:40;;;;;;;0.30;0.20;;;;;;;12.53;60.15;100577.25;5053219;28;20517;-48
2022/04/18 08:22:07;;;;;;;0.40;0.30;;;;;;;12.53;59.01;100574.59;5067917;28;20482;-51
2022/04/18 08:24:34;;;;;;;0.30;0.20;;;;;;;13.22;57.37;100572.31;5061901;28;20449;-49
2022/04/18 08:27:01;;;;;;;0.30;0.20;;;;;;;12.92;56.45;100568.88;5050948;28;20844;-49
2022/04/18 08:29:27;;;;;;;0.30;0.20;;;;;;;13.05;57.27;100567.53;5061838;28;20446;-48
2022/04/18 08:31:54;;;;;;;0.30;0.20;;;;;;;13.25;50.46;100564.19;5067641;28;20906;-48
2022/04/18 08:34:21;;;;;;;0.33;0.23;;;;;;;13.67;50.07;100567.13;5056363;28;20450;-48
2022/04/18 08:36:47;;;;;;;0.40;0.30;;;;;;;13.83;50.25;100562.94;5067260;28;20938;-49
2022/04/18 08:39:14;;;;;;;0.30;0.20;;;;;;;13.73;49.61;100564.25;5056183;28;20455;-48
2022/04/18 08:41:44;;;;;;;0.30;0.20;;;;;;;13.77;45.48;100568.53;5065628;28;20500;-49
2022/04/18 08:44:12;;;;;;;2.20;2.10;;;;;;;13.89;44.87;100565.41;5062704;28;20926;-48
2022/04/18 08:46:39;;;;;;;0.30;0.20;;;;;;;14.15;46.55;100563.53;5060498;28;20450;-48
2022/04/18 08:54:39;;;;;;;2.33;0.57;;;;;;;14.20;45.73;100566.91;5060368;28;20443;-49
2022/04/18 08:57:06;;;;;;;0.50;0.50;;;;;;;14.12;44.07;100555.66;5041145;28;20452;-49
2022/04/18 08:59:32;;;;;;;0.40;0.40;;;;;;;14.19;47.36;100562.47;5057049;28;20537;-49
2022/04/18 09:01:59;;;;;;;0.30;0.20;;;;;;;13.92;42.60;100564.41;5065841;28;20446;-49
2022/04/18 09:04:26;;;;;;;0.30;0.20;;;;;;;14.43;43.26;100555.31;5055403;28;20455;-50
2022/04/18 09:06:53;;;;;;;0.33;0.23;;;;;;;14.24;42.39;100565.84;5061232;28;20457;-49
2022/04/18 09:09:28;;;;;;;0.30;0.20;;;;;;;14.94;41.64;100557.69;5060467;28;20882;-49
2022/04/18 09:11:55;;;;;;;0.30;0.20;;;;;;;14.56;40.98;100553.91;5064117;28;20490;-48
2022/04/18 09:14:22;;;;;;;0.30;0.30;;;;;;;14.76;42.42;100555.75;5066572;28;20516;-49
2022/04/18 09:16:48;;;;;;;0.30;0.20;;;;;;;14.99;41.87;100549.44;5045223;28;20455;-49
2022/04/18 09:19:16;;;;;;;0.53;0.53;;;;;;;14.45;45.54;100548.97;5048979;28;20455;-49
2022/04/18 09:22:00;;;;;;;0.30;0.30;;;;;;;14.77;43.95;100555.69;5057263;28;20934;-51
2022/04/18 09:24:32;;;;;;;1.63;1.23;;;;;;;14.65;42.89;100555.31;5065453;28;20451;-48
2022/04/18 09:27:06;;;;;;;0.40;0.40;;;;;;;14.67;42.93;100551.66;5055612;28;20457;-49
2022/04/18 09:29:39;;;;;;;0.30;0.20;;;;;;;14.51;43.08;100551.41;5058591;28;20470;-48
2022/04/18 09:32:08;;;;;;;0.30;0.20;;;;;;;14.90;44.11;100544.47;5056424;28;20478;-49
2022/04/18 09:34:35;;;;;;;0.30;0.20;;;;;;;14.91;41.97;100546.19;5051572;28;20943;-49
2022/04/18 09:37:17;;;;;;;0.30;0.20;;;;;;;14.88;41.08;100544.53;5051194;28;20523;-50
2022/04/18 09:39:51;;;;;;;0.30;0.30;;;;;;;15.20;41.77;100543.13;5062383;28;20548;-48
2022/04/18 09:42:21;;;;;;;0.70;0.70;;;;;;;15.61;42.51;100535.09;5058725;28;20441;-49
2022/04/18 09:44:48;;;;;;;0.40;0.40;;;;;;;15.42;40.99;100540.41;5056423;28;20455;-49
2022/04/18 09:47:16;;;;;;;0.30;0.30;;;;;;;15.05;39.05;100539.31;5063258;28;20935;-49
2022/04/18 09:49:44;;;;;;;0.30;0.20;;;;;;;15.42;39.40;100524.31;5053719;28;20474;-48
2022/04/18 09:52:11;;;;;;;0.40;0.40;;;;;;;15.74;39.38;100516.66;5064561;28;20486;-49
2022/04/18 09:54:50;;;;;;;0.30;0.20;;;;;;;15.49;39.39;100523.13;5066042;28;20507;-49
2022/04/18 09:57:25;;;;;;;0.30;0.20;;;;;;;15.54;39.60;100518.41;5053677;28;20489;-49
2022/04/18 09:59:55;;;;;;;0.47;0.40;;;;;;;15.32;39.68;100520.31;5058833;28;20494;-49
2022/04/18 10:02:24;;;;;;;0.30;0.20;;;;;;;15.52;38.50;100522.97;5059941;28;20503;-49
2022/04/18 10:04:52;;;;;;;0.30;0.20;;;;;;;15.59;37.97;100513.75;5058940;28;20533;-49
2022/04/18 10:07:20;;;;;;;0.30;0.20;;;;;;;15.43;38.41;100509.13;5060022;28;20446;-49
2022/04/18 10:09:46;;;;;;;0.30;0.30;;;;;;;16.13;39.16;100503.19;5058986;28;20474;-49
2022/04/18 10:12:13;;;;;;;0.30;0.20;;;;;;;15.42;39.29;100502.91;5058291;28;20499;-49
2022/04/18 10:14:41;;;;;;;0.30;0.20;;;;;;;15.13;40.12;100497.97;5064556;28;20497;-49
2022/04/18 10:17:09;;;;;;;0.30;0.20;;;;;;;15.84;40.29;100497.41;5041275;28;20460;-49
2022/04/18 10:20:14;;;;;;;0.30;0.20;;;;;;;16.10;38.94;100496.16;5064938;28;20506;-49
2022/04/18 10:23:11;;;;;;;0.30;0.20;;;;;;;15.98;38.96;100489.56;5065516;28;20447;-49
2022/04/18 10:25:58;;;;;;;0.30;0.20;;;;;;;15.76;38.60;100488.88;5065335;28;20492;-49
2022/04/18 10:28:30;;;;;;;1.13;0.93;;;;;;;16.08;39.12;100483.78;5059829;28;20866;-49
2022/04/18 10:31:00;;;;;;;0.30;0.20;;;;;;;15.76;37.86;100482.59;5045304;28;20481;-49
2022/04/18 10:33:27;;;;;;;0.30;0.20;;;;;;;15.76;38.28;100483.50;5040189;28;20483;-48
2022/04/18 10:35:53;;;;;;;0.40;0.30;;;;;;;15.79;38.59;100461.91;5051354;28;20520;-49
2022/04/18 10:38:30;;;;;;;0.30;0.20;;;;;;;15.82;38.60;100461.75;5038879;28;21003;-48
2022/04/18 10:41:15;;;;;;;0.33;0.27;;;;;;;15.86;38.08;100459.78;5056461;28;20487;-48
2022/04/18 10:43:53;;;;;;;0.30;0.20;;;;;;;16.38;37.76;100455.44;5061178;28;20910;-49
2022/04/18 10:46:21;;;;;;;0.30;0.20;;;;;;;16.24;38.03;100450.78;5049489;28;20446;-49
2022/04/18 10:48:59;;;;;;;0.30;0.20;;;;;;;16.59;37.80;100442.78;5058317;28;20462;-49
2022/04/18 10:51:28;;;;;;;0.30;0.30;;;;;;;16.50;37.22;100451.28;5052931;28;20595;-49
2022/04/18 10:54:10;;;;;;;0.40;0.40;;;;;;;16.02;38.80;100455.44;5039859;28;20867;-49
2022/04/18 10:57:01;;;;;;;0.30;0.20;;;;;;;15.81;37.84;100451.97;5056938;28;20459;-49
2022/04/18 10:59:29;;;;;;;1.00;1.00;;;;;;;16.07;39.19;100450.72;5068037;28;20454;-49
2022/04/18 11:01:58;;;;;;;0.30;0.20;;;;;;;15.85;38.11;100447.34;5042625;28;20452;-49
2022/04/18 11:04:27;;;;;;;0.30;0.20;;;;;;;16.45;40.06;100440.78;5044540;28;20509;-50
2022/04/18 11:07:06;;;;;;;0.30;0.20;;;;;;;16.25;38.88;100430.19;5046282;28;20865;-48
2022/04/18 11:09:36;;;;;;;0.30;0.20;;;;;;;16.28;37.91;100436.25;5065332;28;20469;-49
2022/04/18 11:12:08;;;;;;;0.30;0.20;;;;;;;16.53;39.14;100425.16;5047837;28;20580;-49
2022/04/18 11:14:38;;;;;;;0.93;0.80;;;;;;;16.64;38.26;100424.63;5067205;28;20489;-49
2022/04/18 11:17:06;;;;;;;0.30;0.20;;;;;;;16.32;38.65;100428.94;5060479;28;20508;-49
2022/04/18 11:19:37;;;;;;;0.30;0.20;;;;;;;16.47;40.55;100421.94;5050791;28;20987;-49
2022/04/18 11:22:15;;;;;;;0.30;0.20;;;;;;;16.33;36.71;100411.03;5066600;28;20478;-49
2022/04/18 11:24:51;;;;;;;0.30;0.20;;;;;;;16.34;37.83;100412.75;5072849;28;20515;-49
2022/04/18 11:27:20;;;;;;;0.30;0.20;;;;;;;16.78;37.24;100407.81;5059179;28;20468;-49
2022/04/18 11:30:01;;;;;;;0.30;0.20;;;;;;;16.65;37.41;100406.69;5055967;28;20497;-50
2022/04/18 11:32:33;;;;;;;0.30;0.20;;;;;;;16.43;37.37;100402.41;5057707;28;20493;-50
2022/04/18 11:35:01;;;;;;;0.30;0.20;;;;;;;16.76;37.79;100402.53;5049473;28;20451;-49
2022/04/18 11:37:34;;;;;;;0.30;0.20;;;;;;;16.73;36.72;100391.97;5068436;28;20446;-49
2022/04/18 11:40:07;;;;;;;0.30;0.20;;;;;;;16.65;36.80;100398.63;5068219;28;20505;-49
2022/04/18 11:42:35;;;;;;;0.30;0.20;;;;;;;16.79;36.66;100396.13;5063611;28;20438;-49
2022/04/18 11:45:06;;;;;;;0.30;0.20;;;;;;;16.73;36.49;100394.66;5061849;28;20512;-49
2022/04/18 11:47:38;;;;;;;0.30;0.20;;;;;;;16.79;38.86;100385.41;5065594;28;20466;-49
2022/04/18 11:50:05;;;;;;;0.40;0.40;;;;;;;16.66;38.74;100397.69;5052369;28;20543;-50
2022/04/18 11:52:34;;;;;;;0.30;0.20;;;;;;;16.15;37.79;100384.16;5065655;28;20497;-48
2022/04/18 11:55:13;;;;;;;0.40;0.37;;;;;;;16.72;37.26;100384.88;5058565;28;20478;-48
2022/04/18 11:57:42;;;;;;;0.30;0.20;;;;;;;16.88;38.17;100383.09;5048494;28;20487;-48